Latest Weather Observations for Onslow Airport

IDW60801

Issued at 1:03 pm WST Saturday 31 January 2015 (issued every 30 minutes, with the page automatically refreshed every 10 minutes)

About weather observations | Map of weather stations | Latest weather observations for WA | Other Formats
Station Details ID: 005017 Name: ONSLOW AIRPORT Lat: -21.67 Lon: 115.11 Height: 10.5 m
Data from the previous 72 hours. | See also: Recent months at Onslow Airport
Date/Time
WST
Temp
°C
App
Temp
°C
Dew
Point
Rel
Hum
%
Delta-T
°C
Wind Press
QNH
hPa
Press
MSL
hPa
Rain
since 9 am
mm
Dir
 
Spd
km/h
Gust
km/h
Spd
kts
Gust
kts
31/01:00pm 29.5 31.0 22.7 67 4.6 NW 19 28 10 15 1007.2 1007.1 0.0
31/12:30pm 29.5 31.3 22.5 66 4.8 NW 17 24 9 13 1007.4 1007.3 0.0
31/12:00pm 29.0 30.1 22.0 66 4.7 NW 19 22 10 12 1007.7 1007.6 0.0
31/11:30am 29.7 30.9 22.2 64 5.1 NNW 19 24 10 13 1008.1 1008.0 0.0
31/11:00am 28.7 30.2 22.0 67 4.5 NW 17 26 9 14 1008.5 1008.4 0.0
31/10:30am 28.5 29.7 21.5 66 4.7 NW 17 24 9 13 1008.4 1008.3 0.0
31/10:00am 28.7 29.9 21.5 65 4.8 NW 17 22 9 12 1008.6 1008.5 0.0
31/09:30am 28.8 30.1 21.6 65 4.8 NNW 17 20 9 11 1008.9 1008.8 0.0
31/09:00am 28.5 29.5 21.0 64 5.0 N 17 24 9 13 1008.9 1008.8 0.0
31/08:30am 28.2 30.2 22.2 70 4.0 N 15 19 8 10 1008.6 1008.5 0.0
31/08:00am 28.5 30.9 22.3 69 4.2 NNW 13 17 7 9 1008.3 1008.2 0.0
31/07:30am 27.5 30.1 22.7 75 3.3 NNW 13 17 7 9 1008.1 1008.0 0.0
31/07:00am 26.4 29.3 22.5 79 2.6 WNW 11 15 6 8 1007.7 1007.6 0.0
31/06:30am 26.1 28.8 22.8 82 2.2 WNW 13 19 7 10 1007.3 1007.2 0.0
31/06:00am 25.7 28.3 22.6 83 2.1 NW 13 19 7 10 1006.8 1006.7 0.0
31/05:30am 25.7 27.4 22.4 82 2.2 NW 17 20 9 11 1006.4 1006.3 0.0
31/05:00am 25.8 27.5 22.3 81 2.4 NW 17 24 9 13 1006.5 1006.4 0.0
31/04:30am 25.9 27.1 22.2 80 2.5 WNW 19 22 10 12 1006.6 1006.5 0.0
31/04:00am 26.1 27.7 22.2 79 2.6 NW 17 20 9 11 1006.7 1006.6 0.0
31/03:30am 26.0 28.2 21.9 78 2.7 NW 13 17 7 9 1006.5 1006.4 0.0
31/03:00am 25.8 28.2 22.3 81 2.4 NW 13 17 7 9 1006.6 1006.5 0.0
31/02:30am 26.0 28.4 22.3 80 2.5 NW 13 17 7 9 1006.7 1006.6 0.0
31/02:00am 26.2 28.1 22.1 78 2.8 NW 15 20 8 11 1006.8 1006.7 0.0
31/01:30am 26.4 28.4 22.3 78 2.8 NW 15 17 8 9 1006.9 1006.8 0.0
31/01:00am 26.7 29.0 22.1 76 3.1 WNW 13 15 7 8 1007.2 1007.1 0.0
31/12:30am 26.7 28.9 21.9 75 3.2 WNW 13 15 7 8 1007.6 1007.5 0.0
31/12:00am 26.6 28.9 22.0 76 3.1 WNW 13 19 7 10 1007.9 1007.8 0.0
 
Date/Time
WST
Temp
°C
App
Temp
°C
Dew
Point
Rel
Hum
%
Delta-T
°C
Wind Press
QNH
hPa
Press
MSL
hPa
Rain
since 9 am
mm
Dir
 
Spd
km/h
Gust
km/h
Spd
kts
Gust
kts
30/11:30pm 26.4 28.2 21.8 76 3.1 WNW 15 17 8 9 1007.9 1007.8 0.0
30/11:00pm 26.1 28.5 22.2 79 2.6 WNW 13 17 7 9 1008.1 1008.0 0.0
30/10:30pm 26.3 27.6 22.4 79 2.6 WNW 19 24 10 13 1008.2 1008.1 0.0
30/10:00pm 26.6 27.8 22.2 77 3.0 WNW 19 26 10 14 1008.2 1008.1 0.0
30/09:30pm 26.5 27.9 21.9 76 3.1 WNW 17 22 9 12 1008.0 1007.9 0.0
30/09:00pm 26.7 27.9 22.5 78 2.8 WNW 20 26 11 14 1007.7 1007.6 0.0
30/08:30pm 26.7 26.9 22.1 76 3.1 W 24 30 13 16 1007.1 1007.0 0.0
30/08:00pm 26.9 27.3 22.5 77 3.0 WNW 24 30 13 16 1006.7 1006.6 0.0
30/07:30pm 26.8 27.6 22.4 77 3.0 WNW 22 28 12 15 1006.3 1006.2 0.0
30/07:00pm 26.9 27.6 22.3 76 3.1 NW 22 30 12 16 1005.9 1005.8 0.0
30/06:30pm 27.5 28.4 22.7 75 3.3 NW 22 30 12 16 1005.5 1005.4 0.0
30/06:00pm 28.0 28.4 22.5 72 3.7 NW 24 32 13 17 1005.4 1005.3 0.0
30/05:30pm 28.4 28.7 22.2 69 4.2 NW 24 33 13 18 1005.3 1005.2 0.0
30/05:00pm 29.0 29.3 22.2 66 4.6 NW 24 30 13 16 1005.3 1005.2 0.0
30/04:30pm 29.9 30.0 21.8 62 5.5 NW 24 32 13 17 1005.3 1005.2 0.0
30/04:00pm 30.1 30.5 21.7 60 5.7 NW 22 32 12 17 1005.1 1005.0 0.0
30/03:30pm 30.4 30.8 21.8 60 5.8 NW 22 32 12 17 1005.4 1005.3 0.0
30/03:00pm 31.0 31.9 22.0 58 6.1 NW 20 30 11 16 1005.6 1005.5 0.0
30/02:30pm 30.7 31.2 20.9 56 6.5 NNW 19 30 10 16 1005.9 1005.8 0.0
30/02:00pm 31.3 32.5 21.5 56 6.6 NNW 17 28 9 15 1006.2 1006.1 0.0
30/01:30pm 30.7 31.2 20.9 56 6.5 NW 19 28 10 15 1006.5 1006.4 0.0
30/01:00pm 31.3 31.4 20.3 52 7.3 NNW 20 26 11 14 1006.8 1006.7 0.0
30/12:30pm 31.0 31.3 20.3 53 7.1 NNW 19 28 10 15 1007.2 1007.1 0.0
30/12:00pm 30.5 31.3 20.7 55 6.5 NW 17 26 9 14 1007.5 1007.4 0.0
30/11:30am 30.1 30.4 20.4 56 6.4 NNW 19 28 10 15 1007.8 1007.7 0.0
30/11:00am 30.1 30.9 20.6 56 6.3 NNW 17 28 9 15 1008.0 1007.9 0.0
30/10:30am 29.8 30.5 21.2 60 5.7 NNW 19 24 10 13 1008.3 1008.2 0.0
30/10:00am 29.7 30.8 21.9 63 5.3 NW 19 26 10 14 1008.3 1008.2 0.0
30/09:30am 28.0 29.4 22.5 72 3.7 NW 19 24 10 13 1008.5 1008.4 0.0
30/09:00am 27.2 28.7 23.0 78 2.9 NW 20 26 11 14 1008.5 1008.4 0.0
30/08:30am 27.1 28.6 22.7 77 3.0 NW 19 24 10 13 1008.2 1008.1 0.0
30/08:00am 26.5 29.0 21.7 75 3.2 WNW 11 13 6 7 1007.7 1007.6 0.0
30/07:30am 25.9 28.9 21.3 76 3.0 WSW 7 9 4 5 1007.5 1007.4 0.0
30/07:00am 25.4 28.1 21.3 78 2.7 WSW 9 11 5 6 1007.0 1006.9 0.0
30/06:30am 24.0 26.1 20.9 83 2.0 NW 11 13 6 7 1006.7 1006.6 0.0
30/06:00am 23.8 26.7 20.7 83 2.0 W 6 7 3 4 1006.5 1006.4 0.0
30/05:30am 23.9 26.3 20.8 83 2.0 WSW 9 11 5 6 1006.1 1006.0 0.0
30/05:00am 24.0 26.3 20.7 82 2.2 WSW 9 11 5 6 1005.7 1005.6 0.0
30/04:30am 24.3 26.8 21.0 82 2.2 W 9 13 5 7 1005.7 1005.6 0.0
30/04:00am 24.2 26.6 20.9 82 2.2 WNW 9 11 5 6 1005.7 1005.6 0.0
30/03:30am 24.6 26.9 20.7 79 2.6 W 9 13 5 7 1005.5 1005.4 0.0
30/03:00am 25.0 27.1 20.9 78 2.7 WSW 11 15 6 8 1005.7 1005.6 0.0
30/02:30am 25.4 26.4 21.1 77 2.8 WSW 17 20 9 11 1005.8 1005.7 0.0
30/02:00am 25.3 26.8 21.2 78 2.7 WSW 15 19 8 10 1005.7 1005.6 0.0
30/01:30am 25.4 26.9 21.3 78 2.7 WSW 15 20 8 11 1005.9 1005.8 0.0
30/01:00am 25.7 27.1 21.1 76 3.0 WSW 15 19 8 10 1006.1 1006.0 0.0
30/12:30am 25.9 26.7 21.3 76 3.0 SW 19 24 10 13 1006.7 1006.6 0.0
30/12:00am 25.9 26.9 21.8 78 2.7 WSW 19 26 10 14 1007.2 1007.1 0.0
 
Date/Time
WST
Temp
°C
App
Temp
°C
Dew
Point
Rel
Hum
%
Delta-T
°C
Wind Press
QNH
hPa
Press
MSL
hPa
Rain
since 9 am
mm
Dir
 
Spd
km/h
Gust
km/h
Spd
kts
Gust
kts
29/11:30pm 26.0 27.3 21.7 77 2.9 WSW 17 22 9 12 1007.1 1007.0 0.0
29/11:00pm 26.3 27.8 21.3 74 3.3 W 15 19 8 10 1007.4 1007.3 0.0
29/10:30pm 26.9 28.5 21.4 72 3.7 WSW 15 20 8 11 1007.7 1007.6 0.0
29/10:00pm 27.5 27.9 21.8 71 3.8 WSW 22 32 12 17 1006.8 1006.7 0.0
29/09:30pm 27.7 28.7 22.2 72 3.7 WSW 20 28 11 15 1006.6 1006.5 0.0
29/09:00pm 28.0 28.9 22.0 70 4.0 WSW 20 26 11 14 1006.2 1006.1 0.0
29/08:30pm 28.0 29.8 22.5 72 3.7 WSW 17 20 9 11 1005.9 1005.8 0.0
29/08:00pm 28.1 29.4 22.6 72 3.7 W 20 28 11 15 1005.3 1005.2 0.0
29/07:30pm 28.0 28.8 23.1 74 3.3 W 24 32 13 17 1004.7 1004.6 0.0
29/07:00pm 27.8 26.8 23.0 75 3.3 W 33 41 18 22 1004.3 1004.2 0.0
29/06:30pm 28.1 27.1 23.0 74 3.5 WNW 33 43 18 23 1004.0 1003.9 0.0
29/06:00pm 28.7 27.0 22.4 68 4.3 WNW 35 44 19 24 1003.9 1003.8 0.0
29/05:30pm 28.8 27.5 23.2 71 3.8 WNW 35 43 19 23 1003.8 1003.7 0.0
29/05:00pm 29.0 27.2 23.0 70 4.1 WNW 37 46 20 25 1003.7 1003.6 0.0
29/04:30pm 29.3 26.7 22.8 68 4.4 WNW 41 50 22 27 1003.6 1003.5 0.0
29/04:00pm 29.6 27.6 22.6 66 4.8 NW 37 44 20 24 1003.9 1003.8 0.0
29/03:30pm 30.2 28.1 22.4 63 5.3 NW 37 43 20 23 1004.3 1004.2 0.0
29/03:00pm 30.6 28.8 22.2 61 5.7 WNW 35 43 19 23 1004.8 1004.7 0.0
29/02:30pm 31.0 29.6 22.3 60 5.9 WNW 33 43 18 23 1005.1 1005.0 0.0
29/02:00pm 30.2 28.9 22.4 63 5.3 WNW 33 39 18 21 1005.4 1005.3 0.0
29/01:30pm 30.4 28.9 22.8 64 5.2 WNW 35 44 19 24 1005.7 1005.6 0.0
29/01:00pm 30.0 28.8 22.7 65 5.0 WNW 33 41 18 22 1005.8 1005.7 0.0
29/12:30pm 30.7 29.6 22.8 62 5.4 WNW 33 43 18 23 1006.1 1006.0 0.0
29/12:00pm 30.7 29.9 22.3 61 5.7 WNW 30 39 16 21 1006.3 1006.2 0.0
29/11:30am 30.6 29.9 22.5 62 5.5 WNW 30 35 16 19 1006.7 1006.6 0.0
29/11:00am 30.9 30.6 21.9 58 6.1 WNW 26 32 14 17 1006.9 1006.8 0.0
29/10:30am 30.4 31.1 21.5 59 6.0 WNW 20 28 11 15 1007.0 1006.9 0.0
29/10:00am 30.7 32.5 20.3 53 6.9 SSW 11 19 6 10 1007.2 1007.1 0.0
29/09:30am 30.1 31.3 20.6 56 6.3 SSW 15 20 8 11 1007.4 1007.3 0.0
29/09:00am 28.2 29.8 20.7 63 5.0 SW 13 19 7 10 1007.4 1007.3 0.0
29/08:30am 27.8 28.7 20.9 66 4.6 SSW 17 22 9 12 1007.4 1007.3 0.0
29/08:00am 26.6 27.0 20.9 71 3.8 SW 20 28 11 15 1007.3 1007.2 0.0
29/07:30am 25.7 25.7 20.9 75 3.2 SW 22 28 12 15 1007.3 1007.2 0.0
29/07:00am 25.2 26.1 21.5 80 2.5 WSW 19 24 10 13 1007.0 1006.9 0.0
29/06:30am 24.5 26.1 21.4 83 2.0 SW 15 20 8 11 1006.8 1006.7 0.0
29/06:00am 24.1 26.0 21.4 85 1.8 WSW 13 17 7 9 1006.3 1006.2 0.0
29/05:30am 24.1 25.2 21.2 84 1.9 WSW 17 22 9 12 1006.0 1005.9 0.0
29/05:00am 24.3 25.5 21.4 84 1.9 WSW 17 24 9 13 1005.8 1005.7 0.0
29/04:30am 24.1 25.2 21.2 84 1.9 WSW 17 22 9 12 1005.6 1005.5 0.0
29/04:00am 23.8 25.1 20.9 84 1.9 WSW 15 20 8 11 1005.3 1005.2 0.0
29/03:30am 23.7 25.1 20.4 82 2.1 W 13 17 7 9 1005.4 1005.3 0.0
29/03:00am 24.0 25.4 20.3 80 2.4 WSW 13 19 7 10 1005.2 1005.1 0.0
29/02:30am 24.3 25.1 20.6 80 2.4 WSW 17 22 9 12 1005.1 1005.0 0.0
29/02:00am 24.3 25.1 20.6 80 2.4 WSW 17 22 9 12 1005.4 1005.3 0.0
29/01:30am 24.7 24.6 20.8 79 2.6 SW 22 30 12 16 1005.7 1005.6 0.0
29/01:00am 24.9 24.5 21.0 79 2.6 SW 24 32 13 17 1006.0 1005.9 0.0
29/12:30am 25.2 24.5 21.1 78 2.7 SW 26 32 14 17 1006.2 1006.1 0.0
29/12:00am 25.3 25.1 21.2 78 2.7 SW 24 32 13 17 1006.4 1006.3 0.0
 
Date/Time
WST
Temp
°C
App
Temp
°C
Dew
Point
Rel
Hum
%
Delta-T
°C
Wind Press
QNH
hPa
Press
MSL
hPa
Rain
since 9 am
mm
Dir
 
Spd
km/h
Gust
km/h
Spd
kts
Gust
kts
28/11:30pm 25.5 25.1 21.0 76 3.0 WSW 24 32 13 17 1006.6 1006.5 0.0
28/11:00pm 25.9 24.4 20.9 74 3.3 SW 30 37 16 20 1006.5 1006.4 0.0
28/10:30pm 26.3 25.5 20.8 71 3.6 WSW 26 33 14 18 1006.5 1006.4 0.0
28/10:00pm 26.4 25.9 21.4 74 3.3 WSW 26 37 14 20 1006.2 1006.1 0.0
28/09:30pm 26.6 25.7 21.4 73 3.5 WSW 28 35 15 19 1005.8 1005.7 0.0
28/09:00pm 27.0 25.9 21.1 70 3.9 WSW 28 37 15 20 1005.8 1005.7 0.0
28/08:30pm 27.2 26.7 20.8 68 4.2 WSW 24 33 13 18 1005.7 1005.6 0.0
28/08:00pm 27.1 27.4 22.9 78 2.9 W 26 35 14 19 1005.4 1005.3 0.0
28/07:30pm 27.1 26.5 22.7 77 3.0 W 30 41 16 22 1005.0 1004.9 0.0
28/07:00pm 27.4 26.2 22.6 75 3.3 W 33 43 18 23 1004.8 1004.7 0.0
28/06:30pm 27.9 26.7 22.6 73 3.6 W 33 44 18 24 1004.6 1004.5 0.0
28/06:00pm 28.4 26.7 22.4 70 4.1 W 35 46 19 25 1004.4 1004.3 0.0
28/05:30pm 29.2 27.4 22.2 66 4.7 W 35 46 19 25 1004.3 1004.2 0.0
28/05:00pm 29.4 27.4 21.9 64 5.1 W 35 44 19 24 1004.2 1004.1 0.0
28/04:30pm 29.1 26.7 21.8 64 4.9 W 37 44 20 24 1004.4 1004.3 0.0
28/04:00pm 29.4 26.6 21.1 61 5.5 WNW 37 46 20 25 1004.6 1004.5 0.0
28/03:30pm 29.1 26.3 21.1 62 5.3 WNW 37 44 20 24 1004.8 1004.7 0.0
28/03:00pm 30.0 27.2 21.1 59 6.0 WNW 37 44 20 24 1005.1 1005.0 0.0
28/02:30pm 30.4 27.7 21.2 58 6.2 WNW 37 50 20 27 1005.2 1005.1 0.0
28/02:00pm 30.4 27.3 21.2 58 6.2 WNW 39 48 21 26 1005.5 1005.4 0.0
28/01:30pm 30.6 27.5 20.5 54 6.7 WNW 37 48 20 26 1005.7 1005.6 0.0

Other Formats:

Comma delimited format used in spreadsheet applications
http://www.bom.gov.au/fwo/IDW60801/IDW60801.95305.axf

JavaScript Object Notation format (JSON) in row-major order
http://www.bom.gov.au/fwo/IDW60801/IDW60801.95305.json